sensor_id;sensor_type;location;lat;lon;timestamp;pressure;altitude;pressure_sealevel;temperature;humidity
11682;BME280;5897;42.640;23.310;2023-12-22T00:01:24;92390.56;;;2.56;93.45
11682;BME280;5897;42.640;23.310;2023-12-22T00:03:56;92400.00;;;2.60;93.95
11682;BME280;5897;42.640;23.310;2023-12-22T00:06:34;92390.34;;;2.66;93.64
11682;BME280;5897;42.640;23.310;2023-12-22T00:09:05;92380.84;;;2.65;92.64
11682;BME280;5897;42.640;23.310;2023-12-22T00:11:36;92372.31;;;2.54;92.74
11682;BME280;5897;42.640;23.310;2023-12-22T00:14:02;92395.63;;;2.50;93.01
11682;BME280;5897;42.640;23.310;2023-12-22T00:16:32;92386.06;;;2.53;93.61
11682;BME280;5897;42.640;23.310;2023-12-22T00:19:01;92385.44;;;2.45;93.72
11682;BME280;5897;42.640;23.310;2023-12-22T00:21:28;92370.56;;;2.28;95.26
11682;BME280;5897;42.640;23.310;2023-12-22T00:23:54;92385.59;;;2.38;94.91
11682;BME280;5897;42.640;23.310;2023-12-22T00:26:28;92381.69;;;2.43;94.87
11682;BME280;5897;42.640;23.310;2023-12-22T00:29:01;92379.44;;;2.41;94.94
11682;BME280;5897;42.640;23.310;2023-12-22T00:31:30;92365.41;;;2.21;95.14
11682;BME280;5897;42.640;23.310;2023-12-22T00:33:57;92361.38;;;2.13;96.25
11682;BME280;5897;42.640;23.310;2023-12-22T00:36:25;92331.78;;;2.27;96.24
11682;BME280;5897;42.640;23.310;2023-12-22T00:38:55;92343.56;;;2.46;95.79
11682;BME280;5897;42.640;23.310;2023-12-22T00:41:31;92334.41;;;2.47;94.74
11682;BME280;5897;42.640;23.310;2023-12-22T00:44:00;92319.22;;;2.79;93.11
11682;BME280;5897;42.640;23.310;2023-12-22T00:46:27;92328.91;;;2.54;94.03
11682;BME280;5897;42.640;23.310;2023-12-22T00:49:02;92316.53;;;2.47;95.64
11682;BME280;5897;42.640;23.310;2023-12-22T00:51:29;92327.09;;;2.51;97.83
11682;BME280;5897;42.640;23.310;2023-12-22T00:53:59;92318.00;;;2.48;99.44
11682;BME280;5897;42.640;23.310;2023-12-22T00:56:34;92309.03;;;2.74;98.49
11682;BME280;5897;42.640;23.310;2023-12-22T00:59:06;92332.03;;;2.68;100.00
11682;BME280;5897;42.640;23.310;2023-12-22T01:01:35;92325.47;;;2.89;99.91
11682;BME280;5897;42.640;23.310;2023-12-22T01:04:07;92325.31;;;2.96;98.96
11682;BME280;5897;42.640;23.310;2023-12-22T01:06:37;92335.13;;;2.83;97.42
11682;BME280;5897;42.640;23.310;2023-12-22T01:09:06;92345.47;;;2.97;97.97
11682;BME280;5897;42.640;23.310;2023-12-22T01:11:40;92352.22;;;3.01;99.39
11682;BME280;5897;42.640;23.310;2023-12-22T01:14:08;92340.22;;;2.93;98.52
11682;BME280;5897;42.640;23.310;2023-12-22T01:16:34;92336.91;;;3.05;97.61
11682;BME280;5897;42.640;23.310;2023-12-22T01:19:03;92338.22;;;3.13;96.53
11682;BME280;5897;42.640;23.310;2023-12-22T01:21:47;92327.72;;;3.06;94.68
11682;BME280;5897;42.640;23.310;2023-12-22T01:24:16;92329.03;;;3.14;94.55
11682;BME280;5897;42.640;23.310;2023-12-22T01:26:44;92324.97;;;3.26;94.56
11682;BME280;5897;42.640;23.310;2023-12-22T01:29:15;92327.63;;;3.42;95.37
11682;BME280;5897;42.640;23.310;2023-12-22T01:31:41;92333.59;;;3.46;93.52
11682;BME280;5897;42.640;23.310;2023-12-22T01:34:15;92323.34;;;3.44;92.62
11682;BME280;5897;42.640;23.310;2023-12-22T01:36:42;92313.50;;;3.41;91.07
11682;BME280;5897;42.640;23.310;2023-12-22T01:39:29;92311.34;;;3.36;91.23
11682;BME280;5897;42.640;23.310;2023-12-22T01:41:57;92320.94;;;3.34;90.71
11682;BME280;5897;42.640;23.310;2023-12-22T01:44:23;92299.00;;;3.26;91.08
11682;BME280;5897;42.640;23.310;2023-12-22T01:46:52;92309.53;;;3.17;91.23
11682;BME280;5897;42.640;23.310;2023-12-22T01:49:22;92289.00;;;3.30;90.74
11682;BME280;5897;42.640;23.310;2023-12-22T01:51:50;92288.59;;;3.32;90.39
11682;BME280;5897;42.640;23.310;2023-12-22T01:54:31;92285.47;;;3.49;89.58
11682;BME280;5897;42.640;23.310;2023-12-22T01:57:04;92295.13;;;3.15;90.09
11682;BME280;5897;42.640;23.310;2023-12-22T01:59:36;92296.22;;;3.17;90.97
11682;BME280;5897;42.640;23.310;2023-12-22T02:02:08;92245.00;;;3.22;91.13
11682;BME280;5897;42.640;23.310;2023-12-22T02:04:40;92280.19;;;3.33;90.47
11682;BME280;5897;42.640;23.310;2023-12-22T02:07:09;92267.81;;;3.39;90.03
11682;BME280;5897;42.640;23.310;2023-12-22T02:09:36;92274.34;;;3.22;90.70
11682;BME280;5897;42.640;23.310;2023-12-22T02:12:11;92289.69;;;3.18;90.91
11682;BME280;5897;42.640;23.310;2023-12-22T02:14:41;92235.03;;;3.10;91.58
11682;BME280;5897;42.640;23.310;2023-12-22T02:17:15;92275.56;;;3.34;90.79
11682;BME280;5897;42.640;23.310;2023-12-22T02:19:48;92278.09;;;3.25;91.08
11682;BME280;5897;42.640;23.310;2023-12-22T02:22:21;92278.84;;;3.25;91.32
11682;BME280;5897;42.640;23.310;2023-12-22T02:24:48;92285.50;;;3.33;91.49
11682;BME280;5897;42.640;23.310;2023-12-22T02:27:27;92270.81;;;3.41;90.37
11682;BME280;5897;42.640;23.310;2023-12-22T02:30:03;92263.00;;;3.34;90.20
11682;BME280;5897;42.640;23.310;2023-12-22T02:32:39;92258.16;;;3.29;90.51
11682;BME280;5897;42.640;23.310;2023-12-22T02:35:10;92265.06;;;3.43;91.07
11682;BME280;5897;42.640;23.310;2023-12-22T02:37:42;92276.56;;;3.40;90.78
11682;BME280;5897;42.640;23.310;2023-12-22T02:40:19;92281.72;;;3.47;90.59
11682;BME280;5897;42.640;23.310;2023-12-22T02:42:52;92268.22;;;3.66;89.32
11682;BME280;5897;42.640;23.310;2023-12-22T02:45:19;92265.94;;;3.52;89.16
11682;BME280;5897;42.640;23.310;2023-12-22T02:47:49;92274.78;;;3.49;89.79
11682;BME280;5897;42.640;23.310;2023-12-22T02:50:16;92268.59;;;3.24;91.28
11682;BME280;5897;42.640;23.310;2023-12-22T02:52:43;92254.59;;;3.20;92.21
11682;BME280;5897;42.640;23.310;2023-12-22T02:55:13;92267.22;;;3.48;97.54
11682;BME280;5897;42.640;23.310;2023-12-22T02:57:42;92248.28;;;3.42;97.75
11682;BME280;5897;42.640;23.310;2023-12-22T03:00:12;92237.41;;;3.49;95.90
11682;BME280;5897;42.640;23.310;2023-12-22T03:02:38;92221.06;;;3.47;95.64
11682;BME280;5897;42.640;23.310;2023-12-22T03:05:08;92217.66;;;3.47;96.51
11682;BME280;5897;42.640;23.310;2023-12-22T03:07:37;92233.63;;;3.63;95.42
11682;BME280;5897;42.640;23.310;2023-12-22T03:10:08;92219.31;;;3.69;93.97
11682;BME280;5897;42.640;23.310;2023-12-22T03:12:44;92220.50;;;3.68;93.19
11682;BME280;5897;42.640;23.310;2023-12-22T03:15:15;92239.31;;;3.65;92.66
11682;BME280;5897;42.640;23.310;2023-12-22T03:17:45;92233.09;;;3.68;93.17
11682;BME280;5897;42.640;23.310;2023-12-22T03:20:16;92233.00;;;3.71;92.09
11682;BME280;5897;42.640;23.310;2023-12-22T03:22:45;92242.94;;;3.71;93.16
11682;BME280;5897;42.640;23.310;2023-12-22T03:25:12;92252.66;;;3.77;92.70
11682;BME280;5897;42.640;23.310;2023-12-22T03:27:45;92248.09;;;3.78;92.48
11682;BME280;5897;42.640;23.310;2023-12-22T03:30:13;92258.66;;;3.81;92.26
11682;BME280;5897;42.640;23.310;2023-12-22T03:32:42;92262.63;;;3.77;92.17
11682;BME280;5897;42.640;23.310;2023-12-22T03:35:14;92255.53;;;3.70;92.13
11682;BME280;5897;42.640;23.310;2023-12-22T03:37:46;92256.41;;;3.80;91.39
11682;BME280;5897;42.640;23.310;2023-12-22T03:40:14;92259.59;;;3.75;91.38
11682;BME280;5897;42.640;23.310;2023-12-22T03:42:45;92261.03;;;3.79;91.34
11682;BME280;5897;42.640;23.310;2023-12-22T03:45:15;92238.59;;;3.77;90.83
11682;BME280;5897;42.640;23.310;2023-12-22T03:47:46;92242.75;;;3.78;91.37
11682;BME280;5897;42.640;23.310;2023-12-22T03:50:13;92234.63;;;3.81;91.28
11682;BME280;5897;42.640;23.310;2023-12-22T03:52:42;92245.28;;;3.69;91.89
11682;BME280;5897;42.640;23.310;2023-12-22T03:55:14;92239.31;;;3.65;92.68
11682;BME280;5897;42.640;23.310;2023-12-22T03:57:45;92234.50;;;3.72;92.80
11682;BME280;5897;42.640;23.310;2023-12-22T04:00:18;92248.41;;;3.80;92.49
11682;BME280;5897;42.640;23.310;2023-12-22T04:02:49;92240.63;;;3.85;91.66
11682;BME280;5897;42.640;23.310;2023-12-22T04:05:16;92241.34;;;3.86;91.95
11682;BME280;5897;42.640;23.310;2023-12-22T04:07:42;92233.91;;;3.93;91.35
11682;BME280;5897;42.640;23.310;2023-12-22T04:10:12;92245.34;;;3.94;91.02
11682;BME280;5897;42.640;23.310;2023-12-22T04:12:54;92246.59;;;3.89;90.78
11682;BME280;5897;42.640;23.310;2023-12-22T04:15:22;92244.13;;;3.82;90.78
11682;BME280;5897;42.640;23.310;2023-12-22T04:17:51;92232.63;;;3.85;91.42
11682;BME280;5897;42.640;23.310;2023-12-22T04:20:18;92247.94;;;3.69;92.78
11682;BME280;5897;42.640;23.310;2023-12-22T04:22:44;92244.19;;;3.66;93.08
11682;BME280;5897;42.640;23.310;2023-12-22T04:25:20;92236.84;;;3.70;93.39
11682;BME280;5897;42.640;23.310;2023-12-22T04:27:51;92225.97;;;3.77;93.40
11682;BME280;5897;42.640;23.310;2023-12-22T04:30:20;92228.09;;;3.82;93.34
11682;BME280;5897;42.640;23.310;2023-12-22T04:32:51;92220.44;;;3.84;93.73
11682;BME280;5897;42.640;23.310;2023-12-22T04:35:20;92225.22;;;3.89;93.42
11682;BME280;5897;42.640;23.310;2023-12-22T04:37:47;92219.03;;;3.80;93.77
11682;BME280;5897;42.640;23.310;2023-12-22T04:40:16;92226.31;;;3.92;94.36
11682;BME280;5897;42.640;23.310;2023-12-22T04:42:43;92220.34;;;3.88;94.83
11682;BME280;5897;42.640;23.310;2023-12-22T04:45:18;92219.47;;;3.91;94.93
11682;BME280;5897;42.640;23.310;2023-12-22T04:47:45;92222.91;;;3.91;95.37
11682;BME280;5897;42.640;23.310;2023-12-22T04:50:11;92201.13;;;3.93;95.54
11682;BME280;5897;42.640;23.310;2023-12-22T04:52:40;92200.38;;;4.05;95.41
11682;BME280;5897;42.640;23.310;2023-12-22T04:55:09;92203.06;;;4.05;95.36
11682;BME280;5897;42.640;23.310;2023-12-22T04:57:36;92195.66;;;3.96;94.98
11682;BME280;5897;42.640;23.310;2023-12-22T05:00:06;92204.53;;;4.06;94.40
11682;BME280;5897;42.640;23.310;2023-12-22T05:02:36;92199.19;;;4.06;94.35
11682;BME280;5897;42.640;23.310;2023-12-22T05:05:06;92195.47;;;4.03;93.91
11682;BME280;5897;42.640;23.310;2023-12-22T05:07:33;92209.13;;;4.05;94.02
11682;BME280;5897;42.640;23.310;2023-12-22T05:10:09;92195.97;;;3.98;95.24
11682;BME280;5897;42.640;23.310;2023-12-22T05:12:38;92192.38;;;4.05;94.46
11682;BME280;5897;42.640;23.310;2023-12-22T05:15:09;92191.06;;;4.09;94.37
11682;BME280;5897;42.640;23.310;2023-12-22T05:17:37;92188.38;;;3.97;95.79
11682;BME280;5897;42.640;23.310;2023-12-22T05:20:06;92198.09;;;3.91;96.45
11682;BME280;5897;42.640;23.310;2023-12-22T05:22:33;92193.53;;;3.91;96.59
11682;BME280;5897;42.640;23.310;2023-12-22T05:25:00;92183.69;;;3.88;96.83
11682;BME280;5897;42.640;23.310;2023-12-22T05:27:28;92180.16;;;3.79;96.75
11682;BME280;5897;42.640;23.310;2023-12-22T05:29:58;92209.53;;;3.91;97.05
11682;BME280;5897;42.640;23.310;2023-12-22T05:32:26;92188.28;;;3.88;97.29
11682;BME280;5897;42.640;23.310;2023-12-22T05:34:58;92210.22;;;3.95;96.78
11682;BME280;5897;42.640;23.310;2023-12-22T05:37:25;92223.66;;;4.04;95.84
11682;BME280;5897;42.640;23.310;2023-12-22T05:39:56;92209.25;;;4.14;93.75
11682;BME280;5897;42.640;23.310;2023-12-22T05:42:25;92230.63;;;4.14;93.04
11682;BME280;5897;42.640;23.310;2023-12-22T05:44:55;92224.22;;;4.12;93.69
11682;BME280;5897;42.640;23.310;2023-12-22T05:47:23;92207.84;;;4.22;92.50
11682;BME280;5897;42.640;23.310;2023-12-22T05:49:53;92182.19;;;4.25;91.61
11682;BME280;5897;42.640;23.310;2023-12-22T05:52:27;92173.97;;;4.32;91.32
11682;BME280;5897;42.640;23.310;2023-12-22T05:54:56;92178.56;;;4.31;91.40
11682;BME280;5897;42.640;23.310;2023-12-22T05:57:27;92189.59;;;4.21;91.95
11682;BME280;5897;42.640;23.310;2023-12-22T05:59:55;92179.63;;;4.21;92.55
11682;BME280;5897;42.640;23.310;2023-12-22T06:02:21;92188.19;;;4.16;93.12
11682;BME280;5897;42.640;23.310;2023-12-22T06:04:48;92191.38;;;4.11;94.21
11682;BME280;5897;42.640;23.310;2023-12-22T06:07:15;92179.34;;;4.19;94.01
11682;BME280;5897;42.640;23.310;2023-12-22T06:09:48;92187.84;;;3.89;95.26
11682;BME280;5897;42.640;23.310;2023-12-22T06:12:15;92202.91;;;3.83;95.85
11682;BME280;5897;42.640;23.310;2023-12-22T06:14:42;92219.81;;;3.93;96.47
11682;BME280;5897;42.640;23.310;2023-12-22T06:17:08;92219.50;;;4.03;95.87
11682;BME280;5897;42.640;23.310;2023-12-22T06:19:35;92235.72;;;3.84;96.28
11682;BME280;5897;42.640;23.310;2023-12-22T06:22:11;92199.19;;;3.93;96.02
11682;BME280;5897;42.640;23.310;2023-12-22T06:24:37;92214.69;;;3.98;95.22
11682;BME280;5897;42.640;23.310;2023-12-22T06:27:05;92211.03;;;3.92;95.61
11682;BME280;5897;42.640;23.310;2023-12-22T06:29:33;92222.50;;;3.93;96.11
11682;BME280;5897;42.640;23.310;2023-12-22T06:32:00;92209.75;;;3.97;96.08
11682;BME280;5897;42.640;23.310;2023-12-22T06:34:26;92217.78;;;3.97;96.02
11682;BME280;5897;42.640;23.310;2023-12-22T06:36:56;92217.47;;;4.07;95.90
11682;BME280;5897;42.640;23.310;2023-12-22T06:39:22;92203.56;;;3.87;95.61
11682;BME280;5897;42.640;23.310;2023-12-22T06:41:49;92219.19;;;4.01;96.26
11682;BME280;5897;42.640;23.310;2023-12-22T06:44:17;92232.13;;;4.15;95.76
11682;BME280;5897;42.640;23.310;2023-12-22T06:46:44;92210.22;;;4.20;94.77
11682;BME280;5897;42.640;23.310;2023-12-22T06:49:11;92216.31;;;4.08;95.46
11682;BME280;5897;42.640;23.310;2023-12-22T06:51:41;92225.38;;;3.98;96.64
11682;BME280;5897;42.640;23.310;2023-12-22T06:54:08;92218.84;;;3.99;96.78
11682;BME280;5897;42.640;23.310;2023-12-22T06:56:35;92231.31;;;3.77;97.95
11682;BME280;5897;42.640;23.310;2023-12-22T06:59:02;92222.56;;;3.89;98.50
11682;BME280;5897;42.640;23.310;2023-12-22T07:01:34;92226.84;;;3.99;99.13
11682;BME280;5897;42.640;23.310;2023-12-22T07:04:02;92229.44;;;4.03;99.01
11682;BME280;5897;42.640;23.310;2023-12-22T07:06:30;92215.13;;;4.09;99.19
11682;BME280;5897;42.640;23.310;2023-12-22T07:09:33;92235.44;;;4.19;98.29
11682;BME280;5897;42.640;23.310;2023-12-22T07:11:59;92205.81;;;4.14;98.28
11682;BME280;5897;42.640;23.310;2023-12-22T07:14:26;92242.50;;;4.13;99.92
11682;BME280;5897;42.640;23.310;2023-12-22T07:16:57;92226.91;;;4.24;99.89
11682;BME280;5897;42.640;23.310;2023-12-22T07:19:29;92221.34;;;4.31;99.93
11682;BME280;5897;42.640;23.310;2023-12-22T07:21:57;92227.53;;;4.28;99.95
11682;BME280;5897;42.640;23.310;2023-12-22T07:24:23;92243.44;;;4.32;100.00
11682;BME280;5897;42.640;23.310;2023-12-22T07:26:50;92251.38;;;4.35;100.00
11682;BME280;5897;42.640;23.310;2023-12-22T07:29:19;92234.06;;;4.27;100.00
11682;BME280;5897;42.640;23.310;2023-12-22T07:31:45;92236.41;;;4.38;100.00
11682;BME280;5897;42.640;23.310;2023-12-22T07:34:13;92227.19;;;4.51;100.00
11682;BME280;5897;42.640;23.310;2023-12-22T07:36:40;92241.34;;;4.52;100.00
11682;BME280;5897;42.640;23.310;2023-12-22T07:39:07;92231.50;;;4.36;100.00
11682;BME280;5897;42.640;23.310;2023-12-22T07:41:34;92230.72;;;4.23;100.00
11682;BME280;5897;42.640;23.310;2023-12-22T07:44:01;92242.19;;;4.36;100.00
11682;BME280;5897;42.640;23.310;2023-12-22T07:46:30;92228.81;;;4.61;100.00
11682;BME280;5897;42.640;23.310;2023-12-22T07:48:57;92236.28;;;4.54;100.00
11682;BME280;5897;42.640;23.310;2023-12-22T07:51:25;92245.28;;;4.47;100.00
11682;BME280;5897;42.640;23.310;2023-12-22T07:53:52;92257.03;;;4.62;100.00
11682;BME280;5897;42.640;23.310;2023-12-22T07:56:19;92255.44;;;4.77;100.00
11682;BME280;5897;42.640;23.310;2023-12-22T07:58:45;92266.44;;;4.79;100.00
11682;BME280;5897;42.640;23.310;2023-12-22T08:01:12;92246.16;;;4.69;100.00
11682;BME280;5897;42.640;23.310;2023-12-22T08:03:40;92274.69;;;4.85;100.00
11682;BME280;5897;42.640;23.310;2023-12-22T08:06:07;92272.97;;;4.91;100.00
11682;BME280;5897;42.640;23.310;2023-12-22T08:08:35;92267.28;;;4.89;100.00
11682;BME280;5897;42.640;23.310;2023-12-22T08:11:02;92271.38;;;4.93;100.00
11682;BME280;5897;42.640;23.310;2023-12-22T08:13:28;92288.69;;;4.89;100.00
11682;BME280;5897;42.640;23.310;2023-12-22T08:15:55;92289.56;;;4.98;100.00
11682;BME280;5897;42.640;23.310;2023-12-22T08:18:22;92304.50;;;5.08;100.00
11682;BME280;5897;42.640;23.310;2023-12-22T08:20:48;92290.59;;;5.13;100.00
11682;BME280;5897;42.640;23.310;2023-12-22T08:23:15;92299.16;;;5.08;100.00
11682;BME280;5897;42.640;23.310;2023-12-22T08:25:43;92322.28;;;5.02;100.00
11682;BME280;5897;42.640;23.310;2023-12-22T08:28:09;92309.56;;;4.94;100.00
11682;BME280;5897;42.640;23.310;2023-12-22T08:30:37;92294.03;;;5.01;100.00
11682;BME280;5897;42.640;23.310;2023-12-22T08:33:04;92315.78;;;4.91;100.00
11682;BME280;5897;42.640;23.310;2023-12-22T08:35:31;92307.09;;;4.74;100.00
11682;BME280;5897;42.640;23.310;2023-12-22T08:37:57;92306.25;;;4.77;100.00
11682;BME280;5897;42.640;23.310;2023-12-22T08:40:24;92295.88;;;4.79;100.00
11682;BME280;5897;42.640;23.310;2023-12-22T08:42:53;92275.66;;;4.53;100.00
11682;BME280;5897;42.640;23.310;2023-12-22T08:45:25;92310.97;;;4.73;100.00
11682;BME280;5897;42.640;23.310;2023-12-22T08:47:54;92301.44;;;4.72;100.00
11682;BME280;5897;42.640;23.310;2023-12-22T08:50:20;92298.13;;;4.93;100.00
11682;BME280;5897;42.640;23.310;2023-12-22T08:52:47;92293.38;;;4.97;100.00
11682;BME280;5897;42.640;23.310;2023-12-22T08:55:14;92293.91;;;5.05;100.00
11682;BME280;5897;42.640;23.310;2023-12-22T08:57:41;92296.19;;;5.06;100.00
11682;BME280;5897;42.640;23.310;2023-12-22T09:00:10;92305.28;;;5.09;100.00
11682;BME280;5897;42.640;23.310;2023-12-22T09:02:37;92307.97;;;4.84;100.00
11682;BME280;5897;42.640;23.310;2023-12-22T09:05:04;92310.50;;;5.00;100.00
11682;BME280;5897;42.640;23.310;2023-12-22T09:07:32;92305.72;;;4.95;100.00
11682;BME280;5897;42.640;23.310;2023-12-22T09:09:59;92329.06;;;5.07;100.00
11682;BME280;5897;42.640;23.310;2023-12-22T09:12:25;92330.97;;;5.06;100.00
11682;BME280;5897;42.640;23.310;2023-12-22T09:14:52;92339.09;;;5.15;100.00
11682;BME280;5897;42.640;23.310;2023-12-22T09:17:20;92324.78;;;5.09;100.00
11682;BME280;5897;42.640;23.310;2023-12-22T09:19:47;92334.25;;;5.23;100.00
11682;BME280;5897;42.640;23.310;2023-12-22T09:22:13;92341.97;;;5.33;100.00
11682;BME280;5897;42.640;23.310;2023-12-22T09:24:43;92347.84;;;5.41;100.00
11682;BME280;5897;42.640;23.310;2023-12-22T09:27:09;92348.56;;;5.54;100.00
11682;BME280;5897;42.640;23.310;2023-12-22T09:29:36;92346.97;;;5.44;100.00
11682;BME280;5897;42.640;23.310;2023-12-22T09:32:03;92323.53;;;5.35;100.00
11682;BME280;5897;42.640;23.310;2023-12-22T09:34:31;92322.22;;;5.52;100.00
11682;BME280;5897;42.640;23.310;2023-12-22T09:36:57;92335.16;;;5.66;100.00
11682;BME280;5897;42.640;23.310;2023-12-22T09:39:24;92319.50;;;5.65;100.00
11682;BME280;5897;42.640;23.310;2023-12-22T09:41:54;92336.53;;;5.71;100.00
11682;BME280;5897;42.640;23.310;2023-12-22T09:44:21;92319.78;;;5.79;100.00
11682;BME280;5897;42.640;23.310;2023-12-22T09:46:48;92309.06;;;5.79;100.00
11682;BME280;5897;42.640;23.310;2023-12-22T09:49:19;92305.09;;;5.84;100.00
11682;BME280;5897;42.640;23.310;2023-12-22T09:51:47;92295.00;;;5.88;100.00
11682;BME280;5897;42.640;23.310;2023-12-22T09:54:16;92300.50;;;5.84;100.00
11682;BME280;5897;42.640;23.310;2023-12-22T09:56:44;92304.13;;;5.90;100.00
11682;BME280;5897;42.640;23.310;2023-12-22T09:59:12;92292.34;;;5.88;100.00
11682;BME280;5897;42.640;23.310;2023-12-22T10:01:42;92291.44;;;5.91;100.00
11682;BME280;5897;42.640;23.310;2023-12-22T10:04:11;92280.81;;;6.00;100.00
11682;BME280;5897;42.640;23.310;2023-12-22T10:06:38;92291.41;;;6.03;100.00
11682;BME280;5897;42.640;23.310;2023-12-22T10:09:06;92274.94;;;5.92;100.00
11682;BME280;5897;42.640;23.310;2023-12-22T10:11:35;92288.28;;;6.05;100.00
11682;BME280;5897;42.640;23.310;2023-12-22T10:14:02;92281.47;;;6.13;100.00
11682;BME280;5897;42.640;23.310;2023-12-22T10:16:30;92290.84;;;6.08;100.00
11682;BME280;5897;42.640;23.310;2023-12-22T10:18:56;92269.16;;;5.94;100.00
11682;BME280;5897;42.640;23.310;2023-12-22T10:21:25;92278.94;;;6.09;100.00
11682;BME280;5897;42.640;23.310;2023-12-22T10:23:51;92254.00;;;6.00;100.00
11682;BME280;5897;42.640;23.310;2023-12-22T10:26:19;92260.53;;;6.20;100.00
11682;BME280;5897;42.640;23.310;2023-12-22T10:28:47;92247.91;;;6.30;100.00
11682;BME280;5897;42.640;23.310;2023-12-22T10:31:14;92257.06;;;6.41;100.00
11682;BME280;5897;42.640;23.310;2023-12-22T10:33:42;92246.84;;;6.49;100.00
11682;BME280;5897;42.640;23.310;2023-12-22T10:36:09;92236.31;;;6.63;100.00
11682;BME280;5897;42.640;23.310;2023-12-22T10:38:36;92242.47;;;6.82;100.00
11682;BME280;5897;42.640;23.310;2023-12-22T10:41:03;92243.56;;;7.02;100.00
11682;BME280;5897;42.640;23.310;2023-12-22T10:43:36;92236.16;;;7.15;100.00
11682;BME280;5897;42.640;23.310;2023-12-22T10:46:04;92234.13;;;7.37;100.00
11682;BME280;5897;42.640;23.310;2023-12-22T10:48:31;92226.06;;;7.55;100.00
11682;BME280;5897;42.640;23.310;2023-12-22T10:51:00;92217.69;;;7.89;100.00
11682;BME280;5897;42.640;23.310;2023-12-22T10:53:28;92209.56;;;8.34;100.00
11682;BME280;5897;42.640;23.310;2023-12-22T10:55:54;92210.53;;;8.55;100.00
11682;BME280;5897;42.640;23.310;2023-12-22T10:58:21;92212.91;;;8.94;100.00
11682;BME280;5897;42.640;23.310;2023-12-22T11:00:50;92205.13;;;9.43;94.78
11682;BME280;5897;42.640;23.310;2023-12-22T11:03:19;92199.16;;;9.63;94.77
11682;BME280;5897;42.640;23.310;2023-12-22T11:05:49;92202.09;;;9.88;93.69
11682;BME280;5897;42.640;23.310;2023-12-22T11:08:18;92201.22;;;10.20;91.98
11682;BME280;5897;42.640;23.310;2023-12-22T11:10:50;92203.19;;;10.34;89.95
11682;BME280;5897;42.640;23.310;2023-12-22T11:13:21;92198.69;;;10.46;88.93
11682;BME280;5897;42.640;23.310;2023-12-22T11:15:53;92177.66;;;10.50;88.61
11682;BME280;5897;42.640;23.310;2023-12-22T11:18:21;92169.66;;;10.41;89.92
11682;BME280;5897;42.640;23.310;2023-12-22T11:20:48;92173.06;;;10.70;84.19
11682;BME280;5897;42.640;23.310;2023-12-22T11:23:17;92163.31;;;11.07;75.89
11682;BME280;5897;42.640;23.310;2023-12-22T11:25:45;92167.13;;;11.35;72.75
11682;BME280;5897;42.640;23.310;2023-12-22T11:28:19;92181.09;;;10.99;72.33
11682;BME280;5897;42.640;23.310;2023-12-22T11:30:48;92174.28;;;10.69;68.88
11682;BME280;5897;42.640;23.310;2023-12-22T11:33:19;92179.69;;;10.69;71.95
11682;BME280;5897;42.640;23.310;2023-12-22T11:35:46;92189.91;;;10.80;71.95
11682;BME280;5897;42.640;23.310;2023-12-22T11:38:13;92193.34;;;11.15;71.69
11682;BME280;5897;42.640;23.310;2023-12-22T11:40:40;92190.00;;;10.85;70.63
11682;BME280;5897;42.640;23.310;2023-12-22T11:43:07;92177.59;;;10.30;72.37
11682;BME280;5897;42.640;23.310;2023-12-22T11:45:35;92206.06;;;10.31;73.61
11682;BME280;5897;42.640;23.310;2023-12-22T11:48:06;92215.72;;;10.08;74.38
11682;BME280;5897;42.640;23.310;2023-12-22T11:50:34;92220.59;;;9.95;74.68
11682;BME280;5897;42.640;23.310;2023-12-22T11:53:20;92223.41;;;9.63;73.33
11682;BME280;5897;42.640;23.310;2023-12-22T11:55:59;92195.78;;;9.06;70.41
11682;BME280;5897;42.640;23.310;2023-12-22T11:58:38;92231.84;;;8.76;72.88
11682;BME280;5897;42.640;23.310;2023-12-22T12:01:06;92219.19;;;8.59;74.45
11682;BME280;5897;42.640;23.310;2023-12-22T12:03:36;92201.66;;;8.31;76.86
11682;BME280;5897;42.640;23.310;2023-12-22T12:06:14;92219.72;;;8.30;76.02
11682;BME280;5897;42.640;23.310;2023-12-22T12:08:42;92224.09;;;8.01;77.27
11682;BME280;5897;42.640;23.310;2023-12-22T12:11:08;92226.66;;;7.68;77.73
11682;BME280;5897;42.640;23.310;2023-12-22T12:13:39;92220.56;;;7.68;79.15
11682;BME280;5897;42.640;23.310;2023-12-22T12:16:08;92243.97;;;7.58;79.35
11682;BME280;5897;42.640;23.310;2023-12-22T12:18:34;92232.19;;;7.47;80.29
11682;BME280;5897;42.640;23.310;2023-12-22T12:21:01;92226.34;;;7.39;79.99
11682;BME280;5897;42.640;23.310;2023-12-22T12:23:29;92216.22;;;7.43;78.51
11682;BME280;5897;42.640;23.310;2023-12-22T12:25:57;92186.34;;;7.32;76.24
11682;BME280;5897;42.640;23.310;2023-12-22T12:28:25;92193.06;;;7.28;76.85
11682;BME280;5897;42.640;23.310;2023-12-22T12:30:59;92181.88;;;7.20;76.72
11682;BME280;5897;42.640;23.310;2023-12-22T12:33:28;92191.56;;;7.27;76.83
11682;BME280;5897;42.640;23.310;2023-12-22T12:35:59;92198.31;;;7.31;76.79
11682;BME280;5897;42.640;23.310;2023-12-22T12:38:36;92180.09;;;7.26;75.25
11682;BME280;5897;42.640;23.310;2023-12-22T12:41:09;92175.31;;;7.30;75.27
11682;BME280;5897;42.640;23.310;2023-12-22T12:43:36;92167.13;;;7.34;75.00
11682;BME280;5897;42.640;23.310;2023-12-22T12:46:07;92150.25;;;7.42;69.24
11682;BME280;5897;42.640;23.310;2023-12-22T12:48:34;92144.13;;;7.51;63.76
11682;BME280;5897;42.640;23.310;2023-12-22T12:51:02;92144.72;;;7.64;60.73
11682;BME280;5897;42.640;23.310;2023-12-22T12:53:31;92134.69;;;7.64;58.13
11682;BME280;5897;42.640;23.310;2023-12-22T12:55:59;92137.84;;;7.63;57.96
11682;BME280;5897;42.640;23.310;2023-12-22T12:58:28;92172.59;;;7.84;59.20
11682;BME280;5897;42.640;23.310;2023-12-22T13:01:04;92185.44;;;7.80;63.13
11682;BME280;5897;42.640;23.310;2023-12-22T13:03:31;92200.84;;;7.80;67.58
11682;BME280;5897;42.640;23.310;2023-12-22T13:06:06;92212.91;;;7.84;66.00
11682;BME280;5897;42.640;23.310;2023-12-22T13:08:34;92215.59;;;7.84;64.14
11682;BME280;5897;42.640;23.310;2023-12-22T13:11:01;92182.03;;;7.53;62.53
11682;BME280;5897;42.640;23.310;2023-12-22T13:13:28;92193.97;;;7.61;61.29
11682;BME280;5897;42.640;23.310;2023-12-22T13:15:55;92193.81;;;7.64;60.94
11682;BME280;5897;42.640;23.310;2023-12-22T13:18:22;92203.38;;;7.56;61.96